• Join FlightAware (Why Join?)
  • Login
  • US Flag 
12:53PM EDT


 

Airport Tracker/Info


-or-


 

Live Flight TrackerFlight Track Log ✈ SWA3943 ✈ 29-Apr-2013 ✈ KMCO - KCMH

Flight Track Log - Related Links

Times and Time Zones

All times are in EDT time to prevent confusion due to time zone crossing. See the SWA3943 flight status page for this flight to view local times or setup timezone preferences in your user account.

Time Position Orientation Groundspeed Altitude Reporting Facility
EDT Latitude Longitude Course Direction KTS MPH feet Rate Location/Type
06:20PM 28.4167 -81.3167 180° South 175 201 700  Level Orlando TRACON
06:21PM 28.3833 -81.3167 180° South 191 220 1,700 2,640 Climbing Orlando TRACON
06:22PM 28.3333 -81.3333 196° South 210 242 4,500 2,820 Climbing Orlando TRACON
06:23PM 28.3000 -81.3833 233° Southwest 238 274 7,400 2,580 Climbing Orlando TRACON
06:24PM 28.3092 -81.4897 276° West 275 316 11,300 2,100 Climbing Jacksonville Center
06:25PM 28.3353 -81.5789 288° West 282 325 12,800 1,920 Climbing Jacksonville Center
06:26PM 28.3694 -81.6800 291° West 313 360 15,200 2,460 Climbing Jacksonville Center
06:27PM 28.3997 -81.7928 287° West 347 399 17,800 2,880 Climbing Jacksonville Center
06:29PM 28.4619 -82.0069 288° West 358 412 23,900 2,460 Climbing Jacksonville Center
06:30PM 28.4875 -82.0989 288° West 347 399 25,200 1,560 Climbing Jacksonville Center
06:31PM 28.5194 -82.2028 289° West 342 394 27,100 1,260 Climbing Jacksonville Center
06:32PM 28.5722 -82.2969 303° West 347 399 27,800 420 Climbing Jacksonville Center
06:33PM 28.6933 -82.3483 340° North 372 428 28,000 180 Climbing Jacksonville Center
06:34PM 28.8064 -82.3997 338° Northwest 396 456 28,200 720 Climbing Jacksonville Center
06:35PM 28.9214 -82.4536 338° Northwest 423 487 29,500 1,380 Climbing Jacksonville Center
06:36PM 29.0322 -82.5078 337° Northwest 433 498 31,000 1,560 Climbing Jacksonville Center
06:37PM 29.1431 -82.5622 337° Northwest 438 504 32,700 1,380 Climbing Jacksonville Center
06:38PM 29.2517 -82.6142 337° Northwest 433 498 33,800 600 Climbing Jacksonville Center
06:39PM 29.3622 -82.6661 338° Northwest 433 498 34,000 60 Climbing Jacksonville Center
06:40PM 29.4856 -82.6825 353° North 433 498 34,000 300 Level Jacksonville Center
06:41PM 29.6150 -82.6706 North 443 510 34,700 420 Climbing Jacksonville Center
06:42PM 29.7444 -82.6511 North 454 522 34,900 60 Climbing Jacksonville Center
06:43PM 29.8717 -82.6339 North 460 529 34,900  Level Jacksonville Center
06:44PM 29.9928 -82.6167 North 454 522 35,000  Climbing Jacksonville Center
06:45PM 30.1181 -82.6044 North 449 517 35,000  Level Jacksonville Center
06:46PM 30.2431 -82.5872 North 444 511 35,000 -60 Level Jacksonville Center
06:47PM 30.3475 -82.5772 North 449 517 34,900  Descending Jacksonville Center
06:48PM 30.4811 -82.5575 North 449 517 35,000  Climbing Jacksonville Center
06:49PM 30.6083 -82.5425 North 449 517 35,000  Level Jacksonville Center
06:50PM 30.7378 -82.5253 North 449 517 35,000  Level Jacksonville Center
06:51PM 30.8611 -82.5078 North 449 517 35,000  Level Jacksonville Center
06:52PM 30.9861 -82.4928 North 449 517 35,000  Level Jacksonville Center
06:53PM 31.1114 -82.4753 North 449 517 35,000  Level Jacksonville Center
06:55PM 31.3586 -82.4414 North 475 547 35,000  Level Atlanta Center
06:56PM 31.4856 -82.4244 North 463 533 35,000  Level Atlanta Center
06:57PM 31.6086 -82.4075 North 456 525 35,000  Level Atlanta Center
06:58PM 31.7356 -82.3906 North 456 525 35,000  Level Atlanta Center
06:59PM 31.8606 -82.3736 North 456 525 35,000  Level Atlanta Center
07:00PM 31.9875 -82.3542 North 456 525 35,000  Level Atlanta Center
07:01PM 32.1189 -82.3369 North 461 531 35,000  Level Atlanta Center
07:02PM 32.2481 -82.3197 North 461 531 35,000  Level Atlanta Center
07:03PM 32.3647 -82.3053 North 461 531 35,000  Level Atlanta Center
07:04PM 32.4958 -82.2828 North 466 536 35,000  Level Atlanta Center
07:05PM 32.6292 -82.2681 North 471 542 35,000  Level Atlanta Center
07:06PM 32.7606 -82.2506 North 471 542 35,000  Level Atlanta Center
07:07PM 32.8939 -82.2306 North 476 548 35,000  Level Atlanta Center
07:08PM 33.0397 -82.2100 North 481 554 35,000  Level Atlanta Center
07:09PM 33.1731 -82.1925 North 481 554 35,000  Level Atlanta Center
07:10PM 33.3042 -82.1722 North 481 554 35,000  Level Atlanta Center
07:11PM 33.4353 -82.1544 North 481 554 35,000  Level Atlanta Center
07:12PM 33.5686 -82.1364 North 481 554 35,000  Level Atlanta Center
07:13PM 33.7019 -82.1161 North 481 554 35,000  Level Atlanta Center
07:14PM 33.8331 -82.0981 North 481 554 35,000  Level Atlanta Center
07:15PM 33.9539 -82.0803 North 481 554 35,000  Level Atlanta Center
07:16PM 34.0831 -82.0625 North 476 548 35,000  Level Atlanta Center
07:17PM 34.2142 -82.0442 North 476 548 35,000  Level Atlanta Center
07:18PM 34.3456 -82.0286 North 476 548 35,000  Level Atlanta Center
07:19PM 34.4767 -82.0078 North 476 548 35,000  Level Atlanta Center
07:20PM 34.6058 -81.9894 North 476 548 35,000  Level Atlanta Center
07:21PM 34.7347 -81.9711 North 471 542 35,000  Level Atlanta Center
07:22PM 34.8639 -81.9553 North 465 535 35,000  Level Atlanta Center
07:23PM 34.9931 -81.9369 North 460 529 35,000  Level Atlanta Center
07:24PM 35.1325 -81.9258 North 460 529 35,000  Level Atlanta Center
07:25PM 35.2578 -81.9225 North 452 520 35,000  Level Atlanta Center
07:26PM 35.3828 -81.9142 North 452 520 35,000  Level Atlanta Center
07:27PM 35.5078 -81.9111 North 452 520 35,000  Level Atlanta Center
07:28PM 35.6308 -81.9053 North 446 513 35,000  Level Atlanta Center
07:29PM 35.7539 -81.8969 North 439 505 35,000  Level Atlanta Center
07:30PM 35.8622 -81.8914 North 439 505 35,000  Level Atlanta Center
07:31PM 35.9850 -81.8831 North 439 505 35,000  Level Atlanta Center
07:32PM 36.1061 -81.8772 North 439 505 35,000  Level Atlanta Center
07:33PM 36.2269 -81.8742 North 439 505 35,000  Level Atlanta Center
07:34PM 36.3478 -81.8658 North 434 499 35,000  Level Atlanta Center
07:35PM 36.4792 -81.8622 North 434 499 35,000  Level Atlanta Center
07:38PM 36.7614 -81.8461 North 437 503 35,000  Level Indianapolis Center
07:39PM 36.8808 -81.8422 North 432 497 35,000  Level Indianapolis Center
07:40PM 36.9989 -81.8353 North 427 491 35,000  Level Indianapolis Center
07:41PM 37.1172 -81.8303 North 425 489 35,000 -300 Level Indianapolis Center
07:42PM 37.2344 -81.8256 North 423 487 34,500 -540 Descending Indianapolis Center
07:43PM 37.3725 -81.8189 North 425 489 33,900 -780 Descending Indianapolis Center
07:44PM 37.4906 -81.8131 North 425 489 32,900 -1,020 Descending Indianapolis Center
07:45PM 37.6103 -81.8072 North 429 494 31,900 -960 Descending Indianapolis Center
07:46PM 37.7297 -81.8011 North 430 495 31,000 -480 Descending Indianapolis Center
07:47PM 37.8475 -81.7964 North 439 505 31,000  Level Indianapolis Center
07:48PM 37.9692 -81.7886 North 438 504 31,000  Level Indianapolis Center
07:49PM 38.0908 -81.7831 North 436 502 31,000 -240 Level Indianapolis Center
07:50PM 38.2367 -81.7758 North 436 502 30,600 -540 Descending Indianapolis Center
07:51PM 38.3592 -81.7808 358° North 440 506 30,000 -300 Descending Indianapolis Center
07:52PM 38.4669 -81.8436 335° Northwest 422 486 30,000  Level Indianapolis Center
07:53PM 38.5733 -81.9117 333° Northwest 422 486 30,000  Level Indianapolis Center
07:54PM 38.6803 -81.9792 334° Northwest 422 486 30,000 -1,260 Level Indianapolis Center
07:55PM 38.7911 -82.0431 336° Northwest 431 496 27,500 -2,880 Descending Indianapolis Center
07:56PM 38.9067 -82.0875 343° North 430 495 24,100 -1,920 Descending Indianapolis Center
07:57PM 39.0167 -82.1311 343° North 416 479 23,600 -1,620 Descending Indianapolis Center
07:58PM 39.1244 -82.1744 343° North 406 467 20,900 -2,520 Descending Indianapolis Center
07:59PM 39.2300 -82.2156 343° North 396 456 18,400 -2,460 Descending Indianapolis Center
08:00PM 39.3297 -82.2561 343° North 378 435 15,900 -2,700 Descending Indianapolis Center
08:01PM 39.3825 -82.2767 343° North 368 423 14,600 -2,820 Descending Indianapolis Center
08:01PM 39.4461 -82.3017 343° North 364 419 13,000 -1,920 Descending Indianapolis Center
08:02PM 39.5297 -82.3344 343° North 349 402 11,400 -1,080 Descending Indianapolis Center
08:03PM 39.6100 -82.3678 342° North 298 343 10,900 -1,080 Descending Indianapolis Center
08:04PM 39.6728 -82.4281 324° Northwest 282 325 9,300 -1,740 Descending Indianapolis Center
08:05PM 39.7458 -82.4953 325° Northwest 275 316 7,400 -1,740 Descending Indianapolis Center
08:06PM 39.8097 -82.5531 325° Northwest 276 318 5,800 -1,440 Descending Indianapolis Center
08:07PM 39.8675 -82.6097 323° Northwest 270 311 4,500 -1,440 Descending Indianapolis Center
08:08PM 39.9331 -82.6658 327° Northwest 261 300 3,000 -780 Descending Indianapolis Center
08:09PM 39.9817 -82.7200 320° Northwest 223 257 3,000 -420 Level Indianapolis Center
08:10PM 39.9875 -82.7889 276° West 182 209 2,200 -840 Descending Indianapolis Center
08:11PM 39.9906 -82.8408 274° West 134 154 1,300 -540 Descending Indianapolis Center
08:13PM 39.9947 -82.8906 276° West 169 194 1,100 -180 Descending Indianapolis Center